Time;durP1;ratioP1;P1;durP2;ratioP2;P2;SDS_P1;SDS_P2;PMS_P1;PMS_P2;Temp;Humidity;BMP_temperature;BMP_pressure;BME280_temperature;BME280_humidity;BME280_pressure;Samples;Min_cycle;Max_cycle;Signal;HPM_P1;HPM_P2
2020/12/30 20:49:34;;;;;;;36.33;21.85;;;;;;;2.68;100.00;99968.56;5015411;23;20056;-83
2020/12/30 20:52:00;;;;;;;36.13;23.48;;;;;;;2.71;100.00;99965.66;4995203;28;20406;-84
2020/12/30 20:54:26;;;;;;;38.95;21.88;;;;;;;2.70;100.00;99963.94;4978604;28;20401;-85
2020/12/30 20:56:52;;;;;;;37.90;21.98;;;;;;;2.72;100.00;99962.00;5005698;28;20038;-86
2020/12/30 20:59:18;;;;;;;36.50;22.10;;;;;;;2.72;100.00;99962.00;4995277;28;20134;-83
2020/12/30 21:01:43;;;;;;;37.50;22.23;;;;;;;2.69;100.00;99956.97;5026310;28;20406;-86
2020/12/30 21:04:09;;;;;;;39.05;23.02;;;;;;;2.66;100.00;99959.91;5026158;28;20041;-84
2020/12/30 21:06:34;;;;;;;35.95;20.00;;;;;;;2.63;100.00;99966.31;5012345;28;20044;-83
2020/12/30 21:09:00;;;;;;;34.90;21.90;;;;;;;2.64;100.00;99964.47;4996128;28;20041;-85
2020/12/30 21:11:25;;;;;;;34.67;20.38;;;;;;;2.62;100.00;99955.84;5011252;28;20041;-84
2020/12/30 21:13:50;;;;;;;35.25;21.98;;;;;;;2.61;100.00;99972.69;4995559;28;20052;-82
2020/12/30 21:16:16;;;;;;;31.17;20.75;;;;;;;2.64;100.00;99975.09;5015124;28;20072;-82
2020/12/30 21:18:41;;;;;;;33.88;19.40;;;;;;;2.62;100.00;99975.22;5012304;28;20033;-83
2020/12/30 21:21:07;;;;;;;30.20;18.67;;;;;;;2.59;100.00;99969.34;4992940;28;20053;-83
2020/12/30 21:23:32;;;;;;;34.35;22.50;;;;;;;2.61;100.00;99970.88;4995436;28;20045;-85
2020/12/30 21:25:57;;;;;;;29.52;19.88;;;;;;;2.60;100.00;99979.81;5006082;28;20044;-86
2020/12/30 21:28:23;;;;;;;31.98;19.55;;;;;;;2.62;100.00;99977.03;5009522;28;20033;-85
2020/12/30 21:30:48;;;;;;;29.35;20.40;;;;;;;2.66;100.00;99973.16;4996237;28;20042;-82
2020/12/30 21:33:14;;;;;;;34.15;20.00;;;;;;;2.64;100.00;99969.78;4992481;28;20041;-86
2020/12/30 21:35:39;;;;;;;34.67;23.27;;;;;;;2.69;100.00;99972.88;4992773;28;20040;-83
2020/12/30 21:38:04;;;;;;;30.33;18.42;;;;;;;2.68;100.00;99971.22;5009453;28;20387;-82
2020/12/30 21:40:30;;;;;;;32.72;18.63;;;;;;;2.66;100.00;99975.78;5011276;28;20029;-83
2020/12/30 21:42:58;;;;;;;28.42;15.98;;;;;;;2.65;100.00;99967.00;5011486;28;20038;-83
2020/12/30 21:45:23;;;;;;;28.98;18.40;;;;;;;2.72;100.00;99962.00;5008508;28;20037;-84
2020/12/30 21:47:49;;;;;;;31.42;19.52;;;;;;;2.70;100.00;99961.31;5009370;28;20551;-86
2020/12/30 21:50:14;;;;;;;26.40;15.48;;;;;;;2.65;100.00;99967.00;4995577;28;20046;-86
2020/12/30 21:52:40;;;;;;;31.58;18.23;;;;;;;2.66;100.00;99973.97;5030581;28;20037;-82
2020/12/30 21:55:05;;;;;;;25.42;15.65;;;;;;;2.68;100.00;99968.56;5010514;28;20057;-86
2020/12/30 21:57:31;;;;;;;28.35;19.23;;;;;;;2.69;100.00;99976.38;5023577;28;20501;-84
2020/12/30 21:59:56;;;;;;;25.88;15.48;;;;;;;2.65;100.00;99974.97;5009282;28;20492;-83
2020/12/30 22:02:22;;;;;;;26.58;17.58;;;;;;;2.70;100.00;99975.41;5026620;28;20065;-84
2020/12/30 22:04:47;;;;;;;28.73;18.05;;;;;;;2.72;100.00;99972.59;5011458;28;20041;-85
2020/12/30 22:07:13;;;;;;;27.80;15.88;;;;;;;2.71;100.00;99973.59;4991125;28;20065;-82
2020/12/30 22:09:38;;;;;;;24.55;17.48;;;;;;;2.75;100.00;99977.63;5009075;28;20038;-85
2020/12/30 22:12:04;;;;;;;27.98;15.80;;;;;;;2.70;100.00;99964.81;5025677;28;20052;-86
2020/12/30 22:14:29;;;;;;;26.98;15.25;;;;;;;2.72;100.00;99967.31;4990785;28;20118;-86
2020/12/30 22:16:55;;;;;;;26.48;16.58;;;;;;;2.74;100.00;99972.50;5007540;28;20053;-83
2020/12/30 22:19:20;;;;;;;28.40;16.60;;;;;;;2.73;100.00;99974.28;5029177;28;20085;-85
2020/12/30 22:21:46;;;;;;;26.35;16.20;;;;;;;2.73;100.00;99963.69;5005265;28;20096;-86
2020/12/30 22:24:12;;;;;;;25.02;16.25;;;;;;;2.75;100.00;99977.63;4994867;28;20052;-84
2020/12/30 22:26:38;;;;;;;22.50;14.75;;;;;;;2.75;100.00;99969.69;5031511;28;20543;-85
2020/12/30 22:29:04;;;;;;;26.10;16.80;;;;;;;2.76;100.00;99975.81;5026484;28;20103;-85
2020/12/30 22:31:30;;;;;;;26.25;17.20;;;;;;;2.77;100.00;99974.88;5028387;28;20081;-85
2020/12/30 22:33:56;;;;;;;26.23;16.45;;;;;;;2.78;100.00;99973.88;5022255;28;20042;-82
2020/12/30 22:36:23;;;;;;;27.23;18.02;;;;;;;2.79;100.00;99976.41;5017766;28;20564;-83
2020/12/30 22:38:49;;;;;;;27.65;16.92;;;;;;;2.79;100.00;99972.91;5009470;28;20037;-85
2020/12/30 22:41:16;;;;;;;25.20;16.55;;;;;;;2.80;100.00;99970.13;5006814;28;20520;-86
2020/12/30 22:43:41;;;;;;;32.55;17.20;;;;;;;2.80;100.00;99967.47;5028866;28;20040;-85
2020/12/30 22:46:08;;;;;;;26.90;17.65;;;;;;;2.81;100.00;99966.50;4986984;28;20045;-84
2020/12/30 22:48:33;;;;;;;27.88;17.05;;;;;;;2.81;100.00;99960.38;5010557;28;20053;-84
2020/12/30 22:51:04;;;;;;;33.28;17.50;;;;;;;2.79;100.00;99968.47;5007912;28;20050;-85
2020/12/30 22:53:30;;;;;;;24.38;16.38;;;;;;;2.80;100.00;99966.66;5005993;28;20512;-85
2020/12/30 22:55:56;;;;;;;29.38;17.17;;;;;;;2.78;100.00;99966.78;5026573;28;20037;-85
2020/12/30 22:58:21;;;;;;;27.15;16.65;;;;;;;2.76;100.00;99962.56;5005813;28;20048;-86
2020/12/30 23:00:46;;;;;;;31.27;19.60;;;;;;;2.76;100.00;99960.75;5027717;28;20053;-86
2020/12/30 23:03:12;;;;;;;31.35;19.80;;;;;;;2.74;100.00;99965.38;5001755;28;20046;-86
2020/12/30 23:05:37;;;;;;;28.40;17.88;;;;;;;2.72;100.00;99959.38;5024881;28;20036;-85
2020/12/30 23:08:03;;;;;;;29.20;16.27;;;;;;;2.69;100.00;99957.81;5007010;28;20041;-83
2020/12/30 23:10:28;;;;;;;27.95;16.98;;;;;;;2.70;100.00;99963.94;5017875;28;20103;-86
2020/12/30 23:12:54;;;;;;;31.13;18.52;;;;;;;2.70;100.00;99948.91;5022871;28;20045;-85
2020/12/30 23:15:19;;;;;;;32.15;20.27;;;;;;;2.72;100.00;99956.72;5001404;28;20037;-87
2020/12/30 23:17:46;;;;;;;31.80;18.38;;;;;;;2.70;100.00;99953.34;5018371;28;20057;-84
2020/12/30 23:20:13;;;;;;;29.38;15.68;;;;;;;2.69;100.00;99954.34;5010153;28;20173;-87
2020/12/30 23:22:39;;;;;;;27.88;16.08;;;;;;;2.66;100.00;99960.72;4982977;28;20123;-84
2020/12/30 23:25:05;;;;;;;27.20;18.10;;;;;;;2.68;100.00;99950.84;5021615;28;20044;-83
2020/12/30 23:27:30;;;;;;;31.48;17.13;;;;;;;2.69;100.00;99956.97;5003246;28;20472;-83
2020/12/30 23:29:56;;;;;;;31.95;20.27;;;;;;;2.72;100.00;99957.53;5025888;28;20033;-85
2020/12/30 23:32:21;;;;;;;31.23;17.85;;;;;;;2.72;100.00;99954.06;4991892;28;20088;-81
2020/12/30 23:34:46;;;;;;;29.42;19.23;;;;;;;2.75;100.00;99952.97;5009892;28;20106;-86
2020/12/30 23:37:12;;;;;;;31.17;18.20;;;;;;;2.75;100.00;99950.31;4991781;28;20037;-84
2020/12/30 23:39:37;;;;;;;30.63;18.15;;;;;;;2.78;100.00;99955.34;4984874;28;20091;-85
2020/12/30 23:42:03;;;;;;;32.00;19.08;;;;;;;2.78;100.00;99953.53;5010514;28;20045;-86
2020/12/30 23:44:28;;;;;;;29.20;18.55;;;;;;;2.79;100.00;99951.72;5025988;28;20038;-85
2020/12/30 23:46:53;;;;;;;28.73;17.38;;;;;;;2.80;100.00;99943.63;5024615;28;20045;-84
2020/12/30 23:49:19;;;;;;;28.85;19.00;;;;;;;2.82;100.00;99948.78;5008594;28;20046;-85
2020/12/30 23:51:44;;;;;;;28.20;19.17;;;;;;;2.83;100.00;99947.84;4989959;28;20119;-84
2020/12/30 23:54:10;;;;;;;28.17;17.73;;;;;;;2.79;100.00;99944.63;5007620;28;20052;-87
2020/12/30 23:56:35;;;;;;;26.10;15.77;;;;;;;2.78;100.00;99945.56;5008342;28;20505;-84
2020/12/30 23:59:01;;;;;;;25.98;15.90;;;;;;;2.79;100.00;99941.09;5004976;28;20040;-86
